createdAt,value
2019-05-21T00:00:35.412Z,92402.68
2019-05-21T00:03:08.298Z,92396.95
2019-05-21T00:05:42.108Z,92397.39
2019-05-21T00:08:15.068Z,92401.95
2019-05-21T00:10:47.927Z,92395.48
2019-05-21T00:13:20.729Z,92410.04
2019-05-21T00:15:53.618Z,92397.25
2019-05-21T00:18:26.453Z,92388.43
2019-05-21T00:20:59.188Z,92387.05
2019-05-21T00:23:32.074Z,92394.61
2019-05-21T00:26:05.013Z,92385.48
2019-05-21T00:28:38.794Z,92390.01
2019-05-21T00:31:11.558Z,92389.22
2019-05-21T00:33:45.178Z,92393.59
2019-05-21T00:36:18.539Z,92397.54
2019-05-21T00:38:52.082Z,92391.33
2019-05-21T00:41:25.644Z,92390.80
2019-05-21T00:43:58.560Z,92389.35
2019-05-21T00:46:31.324Z,92388.15
2019-05-21T00:49:04.068Z,92391.81
2019-05-21T00:51:36.914Z,92387.70
2019-05-21T00:54:09.638Z,92392.50
2019-05-21T00:56:42.394Z,92393.98
2019-05-21T00:59:15.206Z,92387.64
2019-05-21T01:01:47.993Z,92389.07
2019-05-21T01:04:21.094Z,92390.44
2019-05-21T01:06:53.739Z,92390.80
2019-05-21T01:09:26.958Z,92388.24
2019-05-21T01:11:59.803Z,92388.52
2019-05-21T01:14:32.569Z,92387.53
2019-05-21T01:17:05.653Z,92392.39
2019-05-21T01:19:38.840Z,92393.11
2019-05-21T01:22:12.051Z,92398.36
2019-05-21T01:24:44.941Z,92387.00
2019-05-21T01:27:17.908Z,92389.45
2019-05-21T01:29:50.851Z,92386.27
2019-05-21T01:32:23.608Z,92388.67
2019-05-21T01:34:56.949Z,92389.60
2019-05-21T01:37:30.073Z,92388.33
2019-05-21T01:40:02.792Z,92391.16
2019-05-21T01:42:35.560Z,92389.70
2019-05-21T01:45:08.453Z,92398.30
2019-05-21T01:47:41.143Z,92396.98
2019-05-21T01:50:14.004Z,92399.17
2019-05-21T01:52:46.679Z,92402.25
2019-05-21T01:55:20.778Z,92401.36
2019-05-21T01:57:54.513Z,92404.02
2019-05-21T02:00:27.398Z,92401.37
2019-05-21T02:03:00.045Z,92400.95
2019-05-21T02:05:33.633Z,92410.41
2019-05-21T02:08:06.698Z,92404.73
2019-05-21T02:10:39.734Z,92406.67
2019-05-21T02:13:12.479Z,92412.18
2019-05-21T02:15:45.559Z,92410.86
2019-05-21T02:18:18.953Z,92414.29
2019-05-21T02:20:52.121Z,92409.83
2019-05-21T02:23:25.323Z,92419.06
2019-05-21T02:25:58.143Z,92425.72
2019-05-21T02:28:31.309Z,92418.91
2019-05-21T02:31:04.051Z,92419.50
2019-05-21T02:33:36.939Z,92414.88
2019-05-21T02:36:09.818Z,92420.47
2019-05-21T02:38:42.520Z,92411.84
2019-05-21T02:41:15.496Z,92422.52
2019-05-21T02:43:48.770Z,92423.83
2019-05-21T02:46:21.494Z,92419.31
2019-05-21T02:48:55.215Z,92428.05
2019-05-21T02:51:28.407Z,92421.61
2019-05-21T02:54:01.230Z,92427.96
2019-05-21T02:56:34.363Z,92422.72
2019-05-21T02:59:07.183Z,92426.05
2019-05-21T03:01:41.710Z,92423.63
2019-05-21T03:04:14.374Z,92420.00
2019-05-21T03:06:47.291Z,92430.02
2019-05-21T03:09:19.962Z,92429.75
2019-05-21T03:11:53.779Z,92426.27
2019-05-21T03:14:26.971Z,92429.78
2019-05-21T03:16:59.809Z,92430.42
2019-05-21T03:19:32.960Z,92432.02
2019-05-21T03:22:05.729Z,92435.47
2019-05-21T03:24:38.532Z,92426.42
2019-05-21T03:27:11.624Z,92427.38
2019-05-21T03:29:44.303Z,92428.35
2019-05-21T03:32:17.165Z,92433.02
2019-05-21T03:34:50.160Z,92431.54
2019-05-21T03:37:23.159Z,92438.19
2019-05-21T03:39:56.116Z,92438.75
2019-05-21T03:42:28.750Z,92437.25
2019-05-21T03:45:01.549Z,92441.67
2019-05-21T03:47:35.219Z,92444.42
2019-05-21T03:50:08.798Z,92448.43
2019-05-21T03:52:41.623Z,92448.35
2019-05-21T03:55:15.390Z,92454.73
2019-05-21T03:57:48.206Z,92458.22
2019-05-21T04:00:21.673Z,92457.92
2019-05-21T04:02:55.272Z,92457.09
2019-05-21T04:05:27.939Z,92462.36
2019-05-21T04:08:00.789Z,92461.38
2019-05-21T04:10:33.506Z,92470.25
2019-05-21T04:13:07.129Z,92462.77
2019-05-21T04:15:50.636Z,92468.08
2019-05-21T04:18:43.288Z,92469.35
2019-05-21T04:21:16.220Z,92466.20
2019-05-21T04:23:49.274Z,92462.42
2019-05-21T04:26:22.086Z,92463.72
2019-05-21T04:28:55.124Z,92461.80
2019-05-21T04:31:27.898Z,92465.09
2019-05-21T04:34:01.240Z,92462.89
2019-05-21T04:36:33.958Z,92464.38
2019-05-21T04:39:07.163Z,92471.55
2019-05-21T04:41:39.894Z,92467.62
2019-05-21T04:44:12.698Z,92472.33
2019-05-21T04:46:45.892Z,92472.09
2019-05-21T04:49:18.843Z,92469.70
2019-05-21T04:51:51.901Z,92473.11
2019-05-21T04:54:25.644Z,92471.84
2019-05-21T04:56:58.340Z,92464.73
2019-05-21T04:59:31.293Z,92469.31
2019-05-21T05:02:04.120Z,92471.27
2019-05-21T05:04:36.935Z,92468.80
2019-05-21T05:07:26.446Z,92467.83
2019-05-21T05:09:44.228Z,92477.33
2019-05-21T05:12:17.897Z,92471.05
2019-05-21T05:14:50.639Z,92471.53
2019-05-21T05:17:23.343Z,92472.92
2019-05-21T05:19:56.139Z,92477.08
2019-05-21T05:22:29.104Z,92472.08
2019-05-21T05:25:02.085Z,92471.16
2019-05-21T05:27:35.361Z,92468.38
2019-05-21T05:30:07.988Z,92468.92
2019-05-21T05:32:40.781Z,92476.36
2019-05-21T05:35:13.650Z,92477.17
2019-05-21T05:37:48.797Z,92474.61
2019-05-21T05:40:20.813Z,92477.66
2019-05-21T05:42:54.688Z,92479.38
2019-05-21T05:45:27.424Z,92483.00
2019-05-21T05:48:00.519Z,92479.64
2019-05-21T05:50:37.978Z,92483.38
2019-05-21T05:53:10.975Z,92480.13
2019-05-21T05:55:43.713Z,92479.88
2019-05-21T05:58:16.353Z,92487.08
2019-05-21T06:00:49.234Z,92487.59
2019-05-21T06:03:21.956Z,92483.98
2019-05-21T06:05:55.085Z,92484.34
2019-05-21T06:08:27.897Z,92487.48
2019-05-21T06:11:00.634Z,92493.81
2019-05-21T06:13:33.584Z,92492.91
2019-05-21T06:16:06.359Z,92493.99
2019-05-21T06:18:39.089Z,92496.48
2019-05-21T06:21:11.978Z,92507.22
2019-05-21T06:23:44.845Z,92503.25
2019-05-21T06:26:17.730Z,92506.08
2019-05-21T06:28:50.643Z,92508.48
2019-05-21T06:31:23.474Z,92507.81
2019-05-21T06:33:56.139Z,92512.98
2019-05-21T06:36:28.914Z,92518.88
2019-05-21T06:39:02.304Z,92522.50
2019-05-21T06:41:35.124Z,92517.78
2019-05-21T06:44:08.209Z,92520.52
2019-05-21T06:46:41.004Z,92515.69
2019-05-21T06:49:13.979Z,92520.16
2019-05-21T06:51:47.004Z,92522.72
2019-05-21T06:54:19.908Z,92521.48
2019-05-21T06:56:53.411Z,92527.26
2019-05-21T06:59:26.764Z,92527.62
2019-05-21T07:01:59.733Z,92532.55
2019-05-21T07:04:32.929Z,92528.52
2019-05-21T07:07:05.679Z,92535.41
2019-05-21T07:09:38.378Z,92538.92
2019-05-21T07:12:11.289Z,92541.16
2019-05-21T07:14:44.299Z,92538.53
2019-05-21T07:17:17.250Z,92537.93
2019-05-21T07:19:50.170Z,92541.39
2019-05-21T07:22:23.264Z,92539.97
2019-05-21T07:24:56.236Z,92541.06
2019-05-21T07:27:29.323Z,92548.75
2019-05-21T07:30:02.150Z,92553.28
2019-05-21T07:32:35.026Z,92553.30
2019-05-21T07:35:07.827Z,92546.34
2019-05-21T07:37:40.545Z,92551.64
2019-05-21T07:40:13.450Z,92559.95
2019-05-21T07:42:46.999Z,92558.80
2019-05-21T07:45:19.935Z,92564.53
2019-05-21T07:47:52.833Z,92566.12
2019-05-21T07:50:25.551Z,92568.78
2019-05-21T07:52:58.902Z,92571.13
2019-05-21T07:55:31.806Z,92574.50
2019-05-21T07:58:04.553Z,92574.14
2019-05-21T08:00:37.324Z,92577.47
2019-05-21T08:03:10.113Z,92578.72
2019-05-21T08:05:42.863Z,92582.24
2019-05-21T08:08:15.679Z,92581.77
2019-05-21T08:10:48.924Z,92587.69
2019-05-21T08:13:21.830Z,92585.58
2019-05-21T08:15:54.699Z,92586.55
2019-05-21T08:18:27.931Z,92591.05
2019-05-21T08:21:00.881Z,92592.19
2019-05-21T08:23:33.724Z,92592.81
2019-05-21T08:26:06.551Z,92594.23
2019-05-21T08:28:39.825Z,92596.42
2019-05-21T08:31:12.544Z,92598.92
2019-05-21T08:33:45.342Z,92596.98
2019-05-21T08:36:18.513Z,92597.89
2019-05-21T08:38:51.823Z,92601.55
2019-05-21T08:41:24.757Z,92601.97
2019-05-21T08:43:57.489Z,92609.88
2019-05-21T08:46:30.223Z,92605.38
2019-05-21T08:49:03.110Z,92609.92
2019-05-21T08:51:35.999Z,92610.52
2019-05-21T08:54:08.895Z,92611.73
2019-05-21T08:56:41.734Z,92611.39
2019-05-21T08:59:14.591Z,92612.81
2019-05-21T09:01:47.700Z,92613.45
2019-05-21T09:04:20.879Z,92616.44
2019-05-21T09:06:54.354Z,92617.81
2019-05-21T09:09:27.206Z,92619.16
2019-05-21T09:12:00.199Z,92619.25
2019-05-21T09:14:33.243Z,92618.45
2019-05-21T09:17:06.638Z,92618.45
2019-05-21T09:19:39.672Z,92620.49
2019-05-21T09:22:12.469Z,92622.53
2019-05-21T09:24:45.567Z,92623.40
2019-05-21T09:27:18.393Z,92628.03
2019-05-21T09:29:51.356Z,92620.73
2019-05-21T09:32:24.283Z,92624.56
2019-05-21T09:34:57.174Z,92625.84
2019-05-21T09:37:30.480Z,92631.88
2019-05-21T09:40:03.346Z,92632.49
2019-05-21T09:42:36.234Z,92634.05
2019-05-21T09:45:09.353Z,92629.37
2019-05-21T09:47:42.133Z,92632.58
2019-05-21T09:50:15.025Z,92629.54
2019-05-21T09:52:48.048Z,92632.91
2019-05-21T09:55:20.808Z,92634.06
2019-05-21T09:58:05.889Z,92636.67
2019-05-21T10:00:40.193Z,92636.03
2019-05-21T10:03:15.585Z,92637.82
2019-05-21T10:05:48.468Z,92637.13
2019-05-21T10:08:21.297Z,92635.28
2019-05-21T10:10:54.320Z,92639.16
2019-05-21T10:13:27.139Z,92636.28
2019-05-21T10:16:01.355Z,92647.17
2019-05-21T10:18:34.708Z,92639.03
2019-05-21T10:21:07.724Z,92642.21
2019-05-21T10:23:40.650Z,92645.73
2019-05-21T10:26:13.573Z,92650.25
2019-05-21T10:28:46.402Z,92647.95
2019-05-21T10:31:19.103Z,92650.79
2019-05-21T10:33:51.813Z,92646.70
2019-05-21T10:36:25.104Z,92649.48
2019-05-21T10:38:57.855Z,92652.87
2019-05-21T10:41:30.954Z,92655.31
2019-05-21T10:44:03.763Z,92654.20
2019-05-21T10:46:37.692Z,92654.14
2019-05-21T10:49:10.399Z,92658.61
2019-05-21T10:51:43.331Z,92664.30
2019-05-21T10:54:16.916Z,92665.47
2019-05-21T10:56:49.734Z,92675.21
2019-05-21T10:59:23.150Z,92666.39
2019-05-21T11:01:58.002Z,92668.14
2019-05-21T11:04:32.325Z,92674.05
2019-05-21T11:07:06.197Z,92677.01
2019-05-21T11:09:39.528Z,92676.53
2019-05-21T11:12:13.305Z,92688.16
2019-05-21T11:14:46.259Z,92686.31
2019-05-21T11:17:20.135Z,92689.87
2019-05-21T11:19:52.954Z,92693.66
2019-05-21T11:22:26.297Z,92693.05
2019-05-21T11:24:59.484Z,92695.34
2019-05-21T11:27:32.298Z,92696.50
2019-05-21T11:30:05.094Z,92697.25
2019-05-21T11:32:38.018Z,92696.94
2019-05-21T11:35:10.876Z,92697.60
2019-05-21T11:37:47.662Z,92694.35
2019-05-21T11:40:18.554Z,92699.60
2019-05-21T11:42:53.161Z,92703.75
2019-05-21T11:45:32.358Z,92708.08
2019-05-21T11:48:00.457Z,92706.87
2019-05-21T11:50:33.494Z,92705.77
2019-05-21T11:53:07.014Z,92719.06
2019-05-21T11:55:40.139Z,92721.73
2019-05-21T11:58:13.073Z,92717.02
2019-05-21T12:00:45.991Z,92729.19
2019-05-21T12:03:19.686Z,92721.73
2019-05-21T12:05:52.711Z,92729.52
2019-05-21T12:08:26.228Z,92726.05
2019-05-21T12:10:59.253Z,92728.41
2019-05-21T12:13:32.161Z,92730.58
2019-05-21T12:16:05.109Z,92729.75
2019-05-21T12:18:37.880Z,92731.64
2019-05-21T12:21:10.912Z,92737.52
2019-05-21T12:23:44.538Z,92735.53
2019-05-21T12:26:17.298Z,92736.89
2019-05-21T12:28:50.260Z,92739.01
2019-05-21T12:31:23.208Z,92740.30
2019-05-21T12:33:56.188Z,92737.57
2019-05-21T12:36:30.049Z,92743.05
2019-05-21T12:39:13.669Z,92739.63
2019-05-21T12:41:37.603Z,92739.63
2019-05-21T12:44:11.326Z,92751.48
2019-05-21T12:46:44.159Z,92754.52
2019-05-21T12:49:17.073Z,92753.94
2019-05-21T12:51:50.033Z,92754.36
2019-05-21T12:54:22.798Z,92754.47
2019-05-21T12:56:55.846Z,92760.28
2019-05-21T12:59:28.718Z,92761.98
2019-05-21T13:02:01.599Z,92760.64
2019-05-21T13:04:34.479Z,92765.02
2019-05-21T13:07:07.235Z,92768.02
2019-05-21T13:09:40.686Z,92767.16
2019-05-21T13:12:13.951Z,92769.12
2019-05-21T13:14:47.331Z,92765.58
2019-05-21T13:17:20.274Z,92770.78
2019-05-21T13:19:53.014Z,92772.97
2019-05-21T13:22:25.886Z,92772.58
2019-05-21T13:24:58.839Z,92775.16
2019-05-21T13:27:31.834Z,92772.51
2019-05-21T13:30:04.644Z,92776.47
2019-05-21T13:32:38.708Z,92782.28
2019-05-21T13:35:12.278Z,92780.81
2019-05-21T13:37:45.066Z,92789.23
2019-05-21T13:40:17.993Z,92786.39
2019-05-21T13:42:50.890Z,92790.81
2019-05-21T13:45:23.759Z,92793.63
2019-05-21T13:47:56.628Z,92783.87
2019-05-21T13:50:29.608Z,92792.34
2019-05-21T13:53:02.459Z,92791.19
2019-05-21T13:55:35.728Z,92798.08
2019-05-21T13:58:08.657Z,92785.84
2019-05-21T14:00:46.072Z,92784.73
2019-05-21T14:03:18.844Z,92786.96
2019-05-21T14:08:29.492Z,92789.70
2019-05-21T14:11:02.353Z,92790.97
2019-05-21T14:13:35.260Z,92793.67
2019-05-21T14:16:08.676Z,92790.44
2019-05-21T14:18:41.769Z,92789.45
2019-05-21T14:21:14.575Z,92801.17
2019-05-21T14:23:48.149Z,92800.92
2019-05-21T14:26:20.944Z,92801.69
2019-05-21T14:28:53.739Z,92802.08
2019-05-21T14:31:45.489Z,92798.00
2019-05-21T14:34:18.244Z,92126.68
2019-05-21T14:36:51.717Z,92804.80
2019-05-21T14:39:24.547Z,92804.72
2019-05-21T14:41:57.514Z,92807.15
2019-05-21T14:44:30.723Z,92807.28
2019-05-21T14:47:03.669Z,92809.41
2019-05-21T14:49:36.624Z,92812.61
2019-05-21T14:52:10.455Z,92819.23
2019-05-21T14:54:43.237Z,92820.05
2019-05-21T14:57:16.766Z,92816.01
2019-05-21T14:59:50.078Z,92821.96
2019-05-21T15:02:23.719Z,92819.45
2019-05-21T15:04:56.667Z,92819.09
2019-05-21T15:07:30.077Z,92818.86
2019-05-21T15:10:03.975Z,92816.09
2019-05-21T15:12:36.846Z,92816.78
2019-05-21T15:15:10.269Z,92819.69
2019-05-21T15:17:43.680Z,92821.38
2019-05-21T15:20:24.040Z,92821.05
2019-05-21T15:22:56.774Z,92817.42
2019-05-21T15:25:30.180Z,92814.62
2019-05-21T15:28:03.120Z,92809.68
2019-05-21T15:30:35.853Z,92809.97
2019-05-21T15:33:08.709Z,92810.98
2019-05-21T15:35:41.721Z,92810.37
2019-05-21T15:38:14.551Z,92811.66
2019-05-21T15:40:47.439Z,92808.89
2019-05-21T15:43:20.236Z,92810.64
2019-05-21T15:45:52.983Z,92811.98
2019-05-21T15:48:27.133Z,92813.59
2019-05-21T15:51:00.158Z,92814.97
2019-05-21T15:53:33.048Z,92817.02
2019-05-21T15:56:06.009Z,92817.33
2019-05-21T15:58:38.764Z,92812.83
2019-05-21T16:01:11.665Z,92813.55
2019-05-21T16:03:44.541Z,92807.52
2019-05-21T16:06:17.337Z,92802.27
2019-05-21T16:08:50.141Z,92806.41
2019-05-21T16:11:28.632Z,92799.36
2019-05-21T16:13:58.546Z,92801.11
2019-05-21T16:16:31.824Z,92805.58
2019-05-21T16:19:04.624Z,92806.14
2019-05-21T16:21:37.443Z,92803.05
2019-05-21T16:24:10.453Z,92802.27
2019-05-21T16:26:43.143Z,92804.53
2019-05-21T16:29:16.062Z,92805.81
2019-05-21T16:31:48.890Z,92802.33
2019-05-21T16:34:21.733Z,92807.84
2019-05-21T16:36:54.426Z,92805.52
2019-05-21T16:39:27.536Z,92801.27
2019-05-21T16:42:00.250Z,92810.67
2019-05-21T16:44:33.000Z,92812.48
2019-05-21T16:47:05.817Z,92814.80
2019-05-21T16:49:38.654Z,92818.26
2019-05-21T16:52:11.294Z,92813.78
2019-05-21T16:54:44.269Z,92817.66
2019-05-21T16:57:16.972Z,92816.82
2019-05-21T16:59:49.833Z,92821.02
2019-05-21T17:02:22.537Z,92815.81
2019-05-21T17:04:55.308Z,92811.63
2019-05-21T17:07:28.043Z,92817.84
2019-05-21T17:10:00.875Z,92820.89
2019-05-21T17:12:34.581Z,92815.30
2019-05-21T17:15:07.446Z,92815.22
2019-05-21T17:17:40.534Z,92813.83
2019-05-21T17:20:13.351Z,92813.30
2019-05-21T17:22:46.219Z,92815.05
2019-05-21T17:25:19.086Z,92814.11
2019-05-21T17:27:51.959Z,92816.50
2019-05-21T17:30:24.865Z,92820.73
2019-05-21T17:32:57.832Z,92818.20
2019-05-21T17:35:31.045Z,92822.73
2019-05-21T17:38:03.769Z,92819.40
2019-05-21T17:40:36.603Z,92818.53
2019-05-21T17:43:09.576Z,92823.56
2019-05-21T17:45:42.331Z,92823.78
2019-05-21T17:48:15.108Z,92822.74
2019-05-21T17:50:48.869Z,92827.64
2019-05-21T17:53:21.745Z,92823.59
2019-05-21T17:55:54.734Z,92829.86
2019-05-21T17:58:27.501Z,92829.08
2019-05-21T18:01:01.887Z,92829.80
2019-05-21T18:03:34.636Z,92835.43
2019-05-21T18:06:07.659Z,92835.06
2019-05-21T18:08:40.758Z,92831.66
2019-05-21T18:11:14.857Z,92826.05
2019-05-21T18:13:49.046Z,92833.77
2019-05-21T18:16:22.018Z,92836.73
2019-05-21T18:18:55.254Z,92828.93
2019-05-21T18:21:28.305Z,92833.24
2019-05-21T18:24:01.241Z,92842.06
2019-05-21T18:26:34.782Z,92849.52
2019-05-21T18:29:07.567Z,92846.31
2019-05-21T18:31:40.617Z,92859.52
2019-05-21T18:34:13.305Z,92851.69
2019-05-21T18:36:46.128Z,92859.84
2019-05-21T18:39:19.252Z,92854.70
2019-05-21T18:41:52.250Z,92865.56
2019-05-21T18:44:25.040Z,92865.67
2019-05-21T18:46:57.899Z,92870.05
2019-05-21T18:49:30.594Z,92877.32
2019-05-21T18:52:03.284Z,92879.50
2019-05-21T18:54:36.065Z,92883.02
2019-05-21T18:57:08.773Z,92889.23
2019-05-21T18:59:41.663Z,92895.91
2019-05-21T19:05:09.830Z,92896.80
2019-05-21T19:10:38.821Z,92905.87
2019-05-21T19:16:07.117Z,92916.41
2019-05-21T19:21:36.045Z,92918.80
2019-05-21T19:27:04.626Z,92928.16
2019-05-21T19:32:33.058Z,92929.44
2019-05-21T19:38:01.576Z,92934.22
2019-05-21T19:43:29.572Z,92939.79
2019-05-21T19:48:57.511Z,92944.67
2019-05-21T19:54:25.919Z,92945.67
2019-05-21T19:59:54.366Z,92953.39
2019-05-21T20:05:22.773Z,92958.16
2019-05-21T20:10:51.560Z,92948.63
2019-05-21T20:16:21.056Z,92944.55
2019-05-21T20:21:50.155Z,92945.25
2019-05-21T20:27:19.310Z,92943.31
2019-05-21T20:32:49.057Z,92946.30
2019-05-21T20:38:17.893Z,92947.45
2019-05-21T20:43:58.704Z,92942.62
2019-05-21T20:49:18.136Z,92938.45
2019-05-21T20:54:47.963Z,92937.55
2019-05-21T21:00:18.212Z,92940.39
2019-05-21T21:05:47.515Z,92943.66
2019-05-21T21:11:17.751Z,92944.74
2019-05-21T21:16:47.146Z,92951.85
2019-05-21T21:22:15.575Z,92959.37
2019-05-21T21:27:44.059Z,92969.46
2019-05-21T21:33:12.820Z,92970.41
2019-05-21T21:38:42.583Z,92962.92
2019-05-21T21:44:11.479Z,92962.33
2019-05-21T21:49:42.347Z,92961.54
2019-05-21T21:55:11.190Z,92970.23
2019-05-21T22:00:41.249Z,92965.89
2019-05-21T22:06:10.139Z,92964.27
2019-05-21T22:11:39.450Z,92963.06
2019-05-21T22:17:20.279Z,92961.03
2019-05-21T22:23:02.040Z,92956.16
2019-05-21T22:28:43.014Z,92965.33
2019-05-21T22:34:25.580Z,92956.03
2019-05-21T22:40:06.936Z,92949.27
2019-05-21T22:45:47.613Z,92950.22
2019-05-21T22:51:28.271Z,92948.30
2019-05-21T22:57:09.015Z,92948.19
2019-05-21T23:02:50.693Z,92952.23
2019-05-21T23:08:20.384Z,92950.77
2019-05-21T23:13:49.389Z,92951.25
2019-05-21T23:19:19.494Z,92953.91
2019-05-21T23:24:48.919Z,92958.53
2019-05-21T23:30:17.919Z,92955.87
2019-05-21T23:35:47.824Z,92954.39
2019-05-21T23:41:16.995Z,92947.56
2019-05-21T23:46:45.673Z,92957.59
2019-05-21T23:52:14.819Z,92960.88
2019-05-21T23:57:44.395Z,92957.55
